sensor_id;sensor_type;location;lat;lon;timestamp;temperature;humidity
61117;DHT22;47002;50.856;6.580;2022-10-16T00:01:12;10.60;96.40
61117;DHT22;47002;50.856;6.580;2022-10-16T00:03:39;10.60;96.40
61117;DHT22;47002;50.856;6.580;2022-10-16T00:06:05;10.60;96.40
61117;DHT22;47002;50.856;6.580;2022-10-16T00:08:31;10.60;96.30
61117;DHT22;47002;50.856;6.580;2022-10-16T00:11:01;10.60;96.30
61117;DHT22;47002;50.856;6.580;2022-10-16T00:13:29;10.60;96.30
61117;DHT22;47002;50.856;6.580;2022-10-16T00:15:56;10.50;96.30
61117;DHT22;47002;50.856;6.580;2022-10-16T00:18:22;10.50;96.30
61117;DHT22;47002;50.856;6.580;2022-10-16T00:20:47;10.60;96.30
61117;DHT22;47002;50.856;6.580;2022-10-16T00:23:13;10.50;96.30
61117;DHT22;47002;50.856;6.580;2022-10-16T00:25:39;10.50;96.30
61117;DHT22;47002;50.856;6.580;2022-10-16T00:28:04;10.40;96.30
61117;DHT22;47002;50.856;6.580;2022-10-16T00:30:31;10.40;96.20
61117;DHT22;47002;50.856;6.580;2022-10-16T00:32:57;10.30;96.20
61117;DHT22;47002;50.856;6.580;2022-10-16T00:35:23;10.30;96.20
61117;DHT22;47002;50.856;6.580;2022-10-16T00:37:48;10.20;96.20
61117;DHT22;47002;50.856;6.580;2022-10-16T00:40:14;10.20;96.20
61117;DHT22;47002;50.856;6.580;2022-10-16T00:42:40;10.10;96.20
61117;DHT22;47002;50.856;6.580;2022-10-16T00:45:08;10.10;96.20
61117;DHT22;47002;50.856;6.580;2022-10-16T00:47:38;10.10;96.20
61117;DHT22;47002;50.856;6.580;2022-10-16T00:50:08;10.00;96.20
61117;DHT22;47002;50.856;6.580;2022-10-16T00:52:35;10.00;96.20
61117;DHT22;47002;50.856;6.580;2022-10-16T00:55:02;9.90;96.30
61117;DHT22;47002;50.856;6.580;2022-10-16T00:57:28;9.90;96.30
61117;DHT22;47002;50.856;6.580;2022-10-16T00:59:54;9.90;96.30
61117;DHT22;47002;50.856;6.580;2022-10-16T01:02:20;9.90;96.40
61117;DHT22;47002;50.856;6.580;2022-10-16T01:04:49;9.90;96.40
61117;DHT22;47002;50.856;6.580;2022-10-16T01:07:22;9.80;96.40
61117;DHT22;47002;50.856;6.580;2022-10-16T01:09:57;9.80;96.40
61117;DHT22;47002;50.856;6.580;2022-10-16T01:12:33;9.80;96.40
61117;DHT22;47002;50.856;6.580;2022-10-16T01:15:04;9.80;96.40
61117;DHT22;47002;50.856;6.580;2022-10-16T01:17:36;9.70;96.50
61117;DHT22;47002;50.856;6.580;2022-10-16T01:20:10;9.70;96.50
61117;DHT22;47002;50.856;6.580;2022-10-16T01:22:43;9.80;96.60
61117;DHT22;47002;50.856;6.580;2022-10-16T01:25:16;9.80;96.70
61117;DHT22;47002;50.856;6.580;2022-10-16T01:27:45;9.80;96.70
61117;DHT22;47002;50.856;6.580;2022-10-16T01:30:16;9.80;96.70
61117;DHT22;47002;50.856;6.580;2022-10-16T01:32:45;9.80;96.70
61117;DHT22;47002;50.856;6.580;2022-10-16T01:35:19;9.70;96.70
61117;DHT22;47002;50.856;6.580;2022-10-16T01:37:50;9.70;96.70
61117;DHT22;47002;50.856;6.580;2022-10-16T01:40:19;9.70;96.70
61117;DHT22;47002;50.856;6.580;2022-10-16T01:42:52;9.70;96.70
61117;DHT22;47002;50.856;6.580;2022-10-16T01:45:19;9.70;96.70
61117;DHT22;47002;50.856;6.580;2022-10-16T01:47:46;9.60;96.70
61117;DHT22;47002;50.856;6.580;2022-10-16T01:50:14;9.60;96.70
61117;DHT22;47002;50.856;6.580;2022-10-16T01:52:43;9.60;96.70
61117;DHT22;47002;50.856;6.580;2022-10-16T01:55:13;9.60;96.70
61117;DHT22;47002;50.856;6.580;2022-10-16T01:57:43;9.60;96.80
61117;DHT22;47002;50.856;6.580;2022-10-16T02:00:13;9.70;96.80
61117;DHT22;47002;50.856;6.580;2022-10-16T02:02:40;9.70;96.80
61117;DHT22;47002;50.856;6.580;2022-10-16T02:05:11;9.70;96.90
61117;DHT22;47002;50.856;6.580;2022-10-16T02:07:38;9.80;96.90
61117;DHT22;47002;50.856;6.580;2022-10-16T02:10:05;9.80;96.90
61117;DHT22;47002;50.856;6.580;2022-10-16T02:12:32;9.80;96.90
61117;DHT22;47002;50.856;6.580;2022-10-16T02:14:59;9.80;96.90
61117;DHT22;47002;50.856;6.580;2022-10-16T02:17:26;9.80;96.90
61117;DHT22;47002;50.856;6.580;2022-10-16T02:19:54;9.80;96.90
61117;DHT22;47002;50.856;6.580;2022-10-16T02:22:26;9.80;96.90
61117;DHT22;47002;50.856;6.580;2022-10-16T02:24:56;9.90;96.90
61117;DHT22;47002;50.856;6.580;2022-10-16T02:27:26;9.80;96.90
61117;DHT22;47002;50.856;6.580;2022-10-16T02:29:56;9.80;96.90
61117;DHT22;47002;50.856;6.580;2022-10-16T02:32:30;9.90;96.90
61117;DHT22;47002;50.856;6.580;2022-10-16T02:34:57;9.90;96.90
61117;DHT22;47002;50.856;6.580;2022-10-16T02:37:24;9.90;96.90
61117;DHT22;47002;50.856;6.580;2022-10-16T02:39:51;9.90;96.90
61117;DHT22;47002;50.856;6.580;2022-10-16T02:42:18;10.00;97.00
61117;DHT22;47002;50.856;6.580;2022-10-16T02:44:43;10.10;97.00
61117;DHT22;47002;50.856;6.580;2022-10-16T02:47:09;10.10;96.90
61117;DHT22;47002;50.856;6.580;2022-10-16T02:49:36;10.20;96.80
61117;DHT22;47002;50.856;6.580;2022-10-16T02:52:02;10.20;96.60
61117;DHT22;47002;50.856;6.580;2022-10-16T02:54:27;10.30;96.40
61117;DHT22;47002;50.856;6.580;2022-10-16T02:56:53;10.30;96.10
61117;DHT22;47002;50.856;6.580;2022-10-16T02:59:19;10.30;95.80
61117;DHT22;47002;50.856;6.580;2022-10-16T03:01:44;10.30;95.50
61117;DHT22;47002;50.856;6.580;2022-10-16T03:04:10;10.30;95.30
61117;DHT22;47002;50.856;6.580;2022-10-16T03:06:37;10.30;95.10
61117;DHT22;47002;50.856;6.580;2022-10-16T03:09:03;10.30;94.90
61117;DHT22;47002;50.856;6.580;2022-10-16T03:11:28;10.20;94.80
61117;DHT22;47002;50.856;6.580;2022-10-16T03:13:54;10.20;94.80
61117;DHT22;47002;50.856;6.580;2022-10-16T03:16:20;10.20;94.70
61117;DHT22;47002;50.856;6.580;2022-10-16T03:18:48;10.10;94.80
61117;DHT22;47002;50.856;6.580;2022-10-16T03:21:13;10.10;94.80
61117;DHT22;47002;50.856;6.580;2022-10-16T03:23:40;10.10;94.80
61117;DHT22;47002;50.856;6.580;2022-10-16T03:26:06;10.10;94.80
61117;DHT22;47002;50.856;6.580;2022-10-16T03:28:32;10.10;94.80
61117;DHT22;47002;50.856;6.580;2022-10-16T03:30:57;10.10;94.80
61117;DHT22;47002;50.856;6.580;2022-10-16T03:33:23;10.10;94.80
61117;DHT22;47002;50.856;6.580;2022-10-16T03:35:52;10.10;94.80
61117;DHT22;47002;50.856;6.580;2022-10-16T03:38:18;10.10;94.80
61117;DHT22;47002;50.856;6.580;2022-10-16T03:40:45;10.10;94.90
61117;DHT22;47002;50.856;6.580;2022-10-16T03:43:11;10.10;95.00
61117;DHT22;47002;50.856;6.580;2022-10-16T03:45:37;10.10;95.00
61117;DHT22;47002;50.856;6.580;2022-10-16T03:48:02;10.20;95.10
61117;DHT22;47002;50.856;6.580;2022-10-16T03:50:28;10.30;95.10
61117;DHT22;47002;50.856;6.580;2022-10-16T03:52:54;10.30;95.20
61117;DHT22;47002;50.856;6.580;2022-10-16T03:55:19;10.40;95.10
61117;DHT22;47002;50.856;6.580;2022-10-16T03:57:46;10.40;95.00
61117;DHT22;47002;50.856;6.580;2022-10-16T04:00:13;10.50;94.90
61117;DHT22;47002;50.856;6.580;2022-10-16T04:02:39;10.40;94.90
61117;DHT22;47002;50.856;6.580;2022-10-16T04:05:05;10.40;94.90
61117;DHT22;47002;50.856;6.580;2022-10-16T04:07:31;10.40;94.90
61117;DHT22;47002;50.856;6.580;2022-10-16T04:09:56;10.40;94.90
61117;DHT22;47002;50.856;6.580;2022-10-16T04:12:22;10.40;94.80
61117;DHT22;47002;50.856;6.580;2022-10-16T04:14:49;10.40;94.80
61117;DHT22;47002;50.856;6.580;2022-10-16T04:17:15;10.40;94.70
61117;DHT22;47002;50.856;6.580;2022-10-16T04:19:40;10.30;94.70
61117;DHT22;47002;50.856;6.580;2022-10-16T04:22:06;10.30;94.60
61117;DHT22;47002;50.856;6.580;2022-10-16T04:24:32;10.20;94.60
61117;DHT22;47002;50.856;6.580;2022-10-16T04:26:57;10.20;94.70
61117;DHT22;47002;50.856;6.580;2022-10-16T04:29:23;10.10;94.70
61117;DHT22;47002;50.856;6.580;2022-10-16T04:31:50;10.10;94.80
61117;DHT22;47002;50.856;6.580;2022-10-16T04:34:16;10.00;94.80
61117;DHT22;47002;50.856;6.580;2022-10-16T04:36:42;10.00;94.80
61117;DHT22;47002;50.856;6.580;2022-10-16T04:39:07;9.90;94.90
61117;DHT22;47002;50.856;6.580;2022-10-16T04:41:33;9.90;95.00
61117;DHT22;47002;50.856;6.580;2022-10-16T04:43:59;9.90;95.10
61117;DHT22;47002;50.856;6.580;2022-10-16T04:46:24;9.80;95.20
61117;DHT22;47002;50.856;6.580;2022-10-16T04:48:51;9.80;95.30
61117;DHT22;47002;50.856;6.580;2022-10-16T04:51:17;9.80;95.40
61117;DHT22;47002;50.856;6.580;2022-10-16T04:53:43;9.70;95.40
61117;DHT22;47002;50.856;6.580;2022-10-16T04:56:08;9.70;95.40
61117;DHT22;47002;50.856;6.580;2022-10-16T04:58:34;9.70;95.50
61117;DHT22;47002;50.856;6.580;2022-10-16T05:01:00;9.70;95.50
61117;DHT22;47002;50.856;6.580;2022-10-16T05:03:25;9.60;95.50
61117;DHT22;47002;50.856;6.580;2022-10-16T05:05:52;9.60;95.60
61117;DHT22;47002;50.856;6.580;2022-10-16T05:08:18;9.60;95.70
61117;DHT22;47002;50.856;6.580;2022-10-16T05:10:44;9.50;95.70
61117;DHT22;47002;50.856;6.580;2022-10-16T05:13:10;9.50;95.70
61117;DHT22;47002;50.856;6.580;2022-10-16T05:15:36;9.50;95.80
61117;DHT22;47002;50.856;6.580;2022-10-16T05:18:02;9.40;95.90
61117;DHT22;47002;50.856;6.580;2022-10-16T05:20:28;9.40;95.90
61117;DHT22;47002;50.856;6.580;2022-10-16T05:22:55;9.40;96.00
61117;DHT22;47002;50.856;6.580;2022-10-16T05:25:21;9.40;96.00
61117;DHT22;47002;50.856;6.580;2022-10-16T05:27:47;9.40;96.10
61117;DHT22;47002;50.856;6.580;2022-10-16T05:30:13;9.40;96.20
61117;DHT22;47002;50.856;6.580;2022-10-16T05:32:38;9.40;96.20
61117;DHT22;47002;50.856;6.580;2022-10-16T05:35:05;9.50;96.30
61117;DHT22;47002;50.856;6.580;2022-10-16T05:37:30;9.50;96.30
61117;DHT22;47002;50.856;6.580;2022-10-16T05:39:57;9.50;96.30
61117;DHT22;47002;50.856;6.580;2022-10-16T05:42:23;9.40;96.20
61117;DHT22;47002;50.856;6.580;2022-10-16T05:44:49;9.40;96.20
61117;DHT22;47002;50.856;6.580;2022-10-16T05:47:15;9.40;96.20
61117;DHT22;47002;50.856;6.580;2022-10-16T05:49:40;9.40;96.30
61117;DHT22;47002;50.856;6.580;2022-10-16T05:52:06;9.40;96.30
61117;DHT22;47002;50.856;6.580;2022-10-16T05:54:32;9.40;96.30
61117;DHT22;47002;50.856;6.580;2022-10-16T05:56:59;9.40;96.30
61117;DHT22;47002;50.856;6.580;2022-10-16T05:59:25;9.30;96.30
61117;DHT22;47002;50.856;6.580;2022-10-16T06:01:50;9.30;96.30
61117;DHT22;47002;50.856;6.580;2022-10-16T06:04:16;9.30;96.30
61117;DHT22;47002;50.856;6.580;2022-10-16T06:06:42;9.30;96.30
61117;DHT22;47002;50.856;6.580;2022-10-16T06:09:08;9.30;96.30
61117;DHT22;47002;50.856;6.580;2022-10-16T06:11:34;9.20;96.30
61117;DHT22;47002;50.856;6.580;2022-10-16T06:14:02;9.10;96.30
61117;DHT22;47002;50.856;6.580;2022-10-16T06:16:29;9.10;96.20
61117;DHT22;47002;50.856;6.580;2022-10-16T06:18:55;9.10;96.30
61117;DHT22;47002;50.856;6.580;2022-10-16T06:21:22;9.10;96.30
61117;DHT22;47002;50.856;6.580;2022-10-16T06:23:48;9.10;96.30
61117;DHT22;47002;50.856;6.580;2022-10-16T06:26:16;9.10;96.30
61117;DHT22;47002;50.856;6.580;2022-10-16T06:28:42;9.10;96.20
61117;DHT22;47002;50.856;6.580;2022-10-16T06:31:11;9.00;96.20
61117;DHT22;47002;50.856;6.580;2022-10-16T06:33:37;9.00;96.20
61117;DHT22;47002;50.856;6.580;2022-10-16T06:36:04;9.00;96.10
61117;DHT22;47002;50.856;6.580;2022-10-16T06:38:31;9.00;96.10
61117;DHT22;47002;50.856;6.580;2022-10-16T06:40:57;9.00;96.20
61117;DHT22;47002;50.856;6.580;2022-10-16T06:43:23;9.10;96.20
61117;DHT22;47002;50.856;6.580;2022-10-16T06:45:51;9.10;96.20
61117;DHT22;47002;50.856;6.580;2022-10-16T06:48:18;9.10;96.30
61117;DHT22;47002;50.856;6.580;2022-10-16T06:50:44;9.20;96.40
61117;DHT22;47002;50.856;6.580;2022-10-16T06:53:09;9.30;96.40
61117;DHT22;47002;50.856;6.580;2022-10-16T06:55:35;9.40;96.40
61117;DHT22;47002;50.856;6.580;2022-10-16T06:58:01;9.40;96.50
61117;DHT22;47002;50.856;6.580;2022-10-16T07:00:26;9.60;96.70
61117;DHT22;47002;50.856;6.580;2022-10-16T07:02:52;9.70;96.80
61117;DHT22;47002;50.856;6.580;2022-10-16T07:05:19;9.90;96.80
61117;DHT22;47002;50.856;6.580;2022-10-16T07:07:45;10.10;96.90
61117;DHT22;47002;50.856;6.580;2022-10-16T07:10:10;10.20;96.90
61117;DHT22;47002;50.856;6.580;2022-10-16T07:12:36;10.40;96.90
61117;DHT22;47002;50.856;6.580;2022-10-16T07:15:02;10.50;96.90
61117;DHT22;47002;50.856;6.580;2022-10-16T07:17:28;10.70;96.90
61117;DHT22;47002;50.856;6.580;2022-10-16T07:19:53;10.90;96.80
61117;DHT22;47002;50.856;6.580;2022-10-16T07:22:20;11.10;96.40
61117;DHT22;47002;50.856;6.580;2022-10-16T07:24:46;11.40;95.60
61117;DHT22;47002;50.856;6.580;2022-10-16T07:27:12;11.60;94.70
61117;DHT22;47002;50.856;6.580;2022-10-16T07:29:37;11.70;93.80
61117;DHT22;47002;50.856;6.580;2022-10-16T07:32:03;11.90;93.10
61117;DHT22;47002;50.856;6.580;2022-10-16T07:34:29;12.00;92.60
61117;DHT22;47002;50.856;6.580;2022-10-16T07:36:54;12.00;92.30
61117;DHT22;47002;50.856;6.580;2022-10-16T07:39:21;12.10;92.10
61117;DHT22;47002;50.856;6.580;2022-10-16T07:41:47;12.10;91.80
61117;DHT22;47002;50.856;6.580;2022-10-16T07:44:13;12.20;91.70
61117;DHT22;47002;50.856;6.580;2022-10-16T07:46:39;12.10;91.70
61117;DHT22;47002;50.856;6.580;2022-10-16T07:49:04;12.10;91.80
61117;DHT22;47002;50.856;6.580;2022-10-16T07:51:30;12.10;91.90
61117;DHT22;47002;50.856;6.580;2022-10-16T07:53:56;12.10;91.80
61117;DHT22;47002;50.856;6.580;2022-10-16T07:56:23;12.10;91.70
61117;DHT22;47002;50.856;6.580;2022-10-16T07:58:50;12.20;91.60
61117;DHT22;47002;50.856;6.580;2022-10-16T08:01:16;12.20;91.40
61117;DHT22;47002;50.856;6.580;2022-10-16T08:03:43;12.30;91.50
61117;DHT22;47002;50.856;6.580;2022-10-16T08:06:08;12.40;91.50
61117;DHT22;47002;50.856;6.580;2022-10-16T08:08:34;12.60;91.80
61117;DHT22;47002;50.856;6.580;2022-10-16T08:11:00;12.60;91.90
61117;DHT22;47002;50.856;6.580;2022-10-16T08:13:27;12.80;91.60
61117;DHT22;47002;50.856;6.580;2022-10-16T08:15:54;12.90;91.10
61117;DHT22;47002;50.856;6.580;2022-10-16T08:18:19;13.10;90.50
61117;DHT22;47002;50.856;6.580;2022-10-16T08:20:45;13.40;89.70
61117;DHT22;47002;50.856;6.580;2022-10-16T08:23:11;13.60;89.20
61117;DHT22;47002;50.856;6.580;2022-10-16T08:25:37;13.80;87.60
61117;DHT22;47002;50.856;6.580;2022-10-16T08:28:04;13.90;86.70
61117;DHT22;47002;50.856;6.580;2022-10-16T08:30:31;14.10;86.70
61117;DHT22;47002;50.856;6.580;2022-10-16T08:32:57;14.10;85.70
61117;DHT22;47002;50.856;6.580;2022-10-16T08:35:22;14.20;84.70
61117;DHT22;47002;50.856;6.580;2022-10-16T08:37:48;14.20;84.10
61117;DHT22;47002;50.856;6.580;2022-10-16T08:40:18;14.30;84.00
61117;DHT22;47002;50.856;6.580;2022-10-16T08:42:54;14.50;84.80
61117;DHT22;47002;50.856;6.580;2022-10-16T08:45:38;14.50;82.80
61117;DHT22;47002;50.856;6.580;2022-10-16T08:48:17;14.60;83.50
61117;DHT22;47002;50.856;6.580;2022-10-16T08:50:44;14.80;83.20
61117;DHT22;47002;50.856;6.580;2022-10-16T08:53:15;14.90;81.90
61117;DHT22;47002;50.856;6.580;2022-10-16T08:55:46;15.00;80.90
61117;DHT22;47002;50.856;6.580;2022-10-16T08:58:13;15.10;80.00
61117;DHT22;47002;50.856;6.580;2022-10-16T09:00:42;15.10;78.80
61117;DHT22;47002;50.856;6.580;2022-10-16T09:03:17;15.20;78.10
61117;DHT22;47002;50.856;6.580;2022-10-16T09:06:07;15.30;78.90
61117;DHT22;47002;50.856;6.580;2022-10-16T09:08:44;15.40;77.40
61117;DHT22;47002;50.856;6.580;2022-10-16T09:11:16;15.50;76.80
61117;DHT22;47002;50.856;6.580;2022-10-16T09:13:48;15.60;75.00
61117;DHT22;47002;50.856;6.580;2022-10-16T09:16:20;15.60;74.20
61117;DHT22;47002;50.856;6.580;2022-10-16T09:18:51;15.60;74.20
61117;DHT22;47002;50.856;6.580;2022-10-16T09:21:22;15.70;73.60
61117;DHT22;47002;50.856;6.580;2022-10-16T09:23:49;15.70;73.50
61117;DHT22;47002;50.856;6.580;2022-10-16T09:26:16;15.80;72.20
61117;DHT22;47002;50.856;6.580;2022-10-16T09:28:42;15.90;70.80
61117;DHT22;47002;50.856;6.580;2022-10-16T09:31:15;15.80;69.80
61117;DHT22;47002;50.856;6.580;2022-10-16T09:33:44;15.90;70.80
61117;DHT22;47002;50.856;6.580;2022-10-16T09:36:11;16.00;71.70
61117;DHT22;47002;50.856;6.580;2022-10-16T09:38:38;16.10;70.80
61117;DHT22;47002;50.856;6.580;2022-10-16T09:41:15;16.20;69.40
61117;DHT22;47002;50.856;6.580;2022-10-16T09:43:47;16.30;70.70
61117;DHT22;47002;50.856;6.580;2022-10-16T09:46:22;16.40;69.10
61117;DHT22;47002;50.856;6.580;2022-10-16T09:48:53;16.40;66.50
61117;DHT22;47002;50.856;6.580;2022-10-16T09:51:23;16.50;67.70
61117;DHT22;47002;50.856;6.580;2022-10-16T09:53:53;16.40;67.20
61117;DHT22;47002;50.856;6.580;2022-10-16T09:56:23;16.50;67.00
61117;DHT22;47002;50.856;6.580;2022-10-16T09:58:50;16.50;67.30
61117;DHT22;47002;50.856;6.580;2022-10-16T10:01:16;16.40;67.40
61117;DHT22;47002;50.856;6.580;2022-10-16T10:03:43;16.50;66.90
61117;DHT22;47002;50.856;6.580;2022-10-16T10:06:23;16.60;66.80
61117;DHT22;47002;50.856;6.580;2022-10-16T10:08:54;16.70;65.90
61117;DHT22;47002;50.856;6.580;2022-10-16T10:11:39;16.80;64.80
61117;DHT22;47002;50.856;6.580;2022-10-16T10:14:05;17.00;66.50
61117;DHT22;47002;50.856;6.580;2022-10-16T10:16:31;17.20;64.70
61117;DHT22;47002;50.856;6.580;2022-10-16T10:19:00;17.30;62.90
61117;DHT22;47002;50.856;6.580;2022-10-16T10:21:27;17.20;62.60
61117;DHT22;47002;50.856;6.580;2022-10-16T10:23:55;17.10;62.80
61117;DHT22;47002;50.856;6.580;2022-10-16T10:26:23;17.00;62.80
61117;DHT22;47002;50.856;6.580;2022-10-16T10:28:55;17.00;63.50
61117;DHT22;47002;50.856;6.580;2022-10-16T10:31:27;17.00;64.40
61117;DHT22;47002;50.856;6.580;2022-10-16T10:33:58;17.00;64.00
61117;DHT22;47002;50.856;6.580;2022-10-16T10:36:32;17.10;64.60
61117;DHT22;47002;50.856;6.580;2022-10-16T10:39:00;17.20;65.60
61117;DHT22;47002;50.856;6.580;2022-10-16T10:44:30;17.30;62.20
61117;DHT22;47002;50.856;6.580;2022-10-16T10:47:06;17.30;63.50
61117;DHT22;47002;50.856;6.580;2022-10-16T10:49:47;17.40;63.00
61117;DHT22;47002;50.856;6.580;2022-10-16T10:52:41;17.50;63.10
61117;DHT22;47002;50.856;6.580;2022-10-16T10:55:14;17.60;61.60
61117;DHT22;47002;50.856;6.580;2022-10-16T10:57:47;17.50;61.00
61117;DHT22;47002;50.856;6.580;2022-10-16T11:00:21;17.40;61.00
61117;DHT22;47002;50.856;6.580;2022-10-16T11:02:50;17.20;61.20
61117;DHT22;47002;50.856;6.580;2022-10-16T11:05:30;17.20;62.30
61117;DHT22;47002;50.856;6.580;2022-10-16T11:08:03;17.10;62.80
61117;DHT22;47002;50.856;6.580;2022-10-16T11:10:38;17.20;63.40
61117;DHT22;47002;50.856;6.580;2022-10-16T11:13:15;17.30;61.20
61117;DHT22;47002;50.856;6.580;2022-10-16T11:15:43;17.40;61.20
61117;DHT22;47002;50.856;6.580;2022-10-16T11:18:15;17.60;60.50
61117;DHT22;47002;50.856;6.580;2022-10-16T11:20:44;17.70;61.10
61117;DHT22;47002;50.856;6.580;2022-10-16T11:23:16;17.80;60.50
61117;DHT22;47002;50.856;6.580;2022-10-16T11:25:44;17.90;60.20
61117;DHT22;47002;50.856;6.580;2022-10-16T11:28:13;18.10;59.30
61117;DHT22;47002;50.856;6.580;2022-10-16T11:30:44;18.10;58.80
61117;DHT22;47002;50.856;6.580;2022-10-16T11:33:25;18.20;59.90
61117;DHT22;47002;50.856;6.580;2022-10-16T11:35:55;18.40;58.60
61117;DHT22;47002;50.856;6.580;2022-10-16T11:38:30;18.40;58.30
61117;DHT22;47002;50.856;6.580;2022-10-16T11:41:01;18.50;58.10
61117;DHT22;47002;50.856;6.580;2022-10-16T11:43:34;18.60;57.70
61117;DHT22;47002;50.856;6.580;2022-10-16T11:46:07;18.60;55.90
61117;DHT22;47002;50.856;6.580;2022-10-16T11:48:39;18.60;56.20
61117;DHT22;47002;50.856;6.580;2022-10-16T11:51:10;18.70;56.40
61117;DHT22;47002;50.856;6.580;2022-10-16T11:53:46;18.70;56.10
61117;DHT22;47002;50.856;6.580;2022-10-16T11:56:16;18.60;55.10
61117;DHT22;47002;50.856;6.580;2022-10-16T11:58:52;18.60;56.40
61117;DHT22;47002;50.856;6.580;2022-10-16T12:01:24;18.70;57.30
61117;DHT22;47002;50.856;6.580;2022-10-16T12:04:02;18.90;55.90
61117;DHT22;47002;50.856;6.580;2022-10-16T12:06:34;19.10;56.40
61117;DHT22;47002;50.856;6.580;2022-10-16T12:09:04;19.40;55.50
61117;DHT22;47002;50.856;6.580;2022-10-16T12:11:36;19.70;53.70
61117;DHT22;47002;50.856;6.580;2022-10-16T12:14:07;19.90;52.50
61117;DHT22;47002;50.856;6.580;2022-10-16T12:16:51;20.00;52.30
61117;DHT22;47002;50.856;6.580;2022-10-16T12:19:18;20.00;52.60
61117;DHT22;47002;50.856;6.580;2022-10-16T12:21:44;20.00;51.80
61117;DHT22;47002;50.856;6.580;2022-10-16T12:24:30;19.90;53.00
61117;DHT22;47002;50.856;6.580;2022-10-16T12:26:57;19.90;52.70
61117;DHT22;47002;50.856;6.580;2022-10-16T12:29:31;20.00;52.30
61117;DHT22;47002;50.856;6.580;2022-10-16T12:31:57;20.00;52.70
61117;DHT22;47002;50.856;6.580;2022-10-16T12:34:27;20.10;51.60
61117;DHT22;47002;50.856;6.580;2022-10-16T12:36:54;20.10;51.00
61117;DHT22;47002;50.856;6.580;2022-10-16T12:39:23;20.00;52.40
61117;DHT22;47002;50.856;6.580;2022-10-16T12:42:00;19.90;51.60
61117;DHT22;47002;50.856;6.580;2022-10-16T12:44:32;19.70;51.60
61117;DHT22;47002;50.856;6.580;2022-10-16T12:46:58;19.60;52.00
61117;DHT22;47002;50.856;6.580;2022-10-16T12:49:31;19.50;52.40
61117;DHT22;47002;50.856;6.580;2022-10-16T12:51:57;19.40;52.20
61117;DHT22;47002;50.856;6.580;2022-10-16T12:54:27;19.60;53.10
61117;DHT22;47002;50.856;6.580;2022-10-16T12:57:06;20.00;51.70
61117;DHT22;47002;50.856;6.580;2022-10-16T12:59:40;20.20;50.00
61117;DHT22;47002;50.856;6.580;2022-10-16T13:02:25;20.50;50.00
61117;DHT22;47002;50.856;6.580;2022-10-16T13:05:08;20.70;49.60
61117;DHT22;47002;50.856;6.580;2022-10-16T13:07:46;20.60;49.20
61117;DHT22;47002;50.856;6.580;2022-10-16T13:10:23;20.40;49.70
61117;DHT22;47002;50.856;6.580;2022-10-16T13:13:01;20.40;50.30
61117;DHT22;47002;50.856;6.580;2022-10-16T13:15:39;20.50;50.40
61117;DHT22;47002;50.856;6.580;2022-10-16T13:18:14;20.80;50.70
61117;DHT22;47002;50.856;6.580;2022-10-16T13:21:07;21.30;48.90
61117;DHT22;47002;50.856;6.580;2022-10-16T13:23:38;22.00;47.90
61117;DHT22;47002;50.856;6.580;2022-10-16T13:26:17;23.10;46.30
61117;DHT22;47002;50.856;6.580;2022-10-16T13:28:47;24.40;44.20
61117;DHT22;47002;50.856;6.580;2022-10-16T13:31:17;25.60;41.60
61117;DHT22;47002;50.856;6.580;2022-10-16T13:33:47;26.10;39.50
61117;DHT22;47002;50.856;6.580;2022-10-16T13:36:21;26.10;39.50
61117;DHT22;47002;50.856;6.580;2022-10-16T13:38:47;26.40;38.30
61117;DHT22;47002;50.856;6.580;2022-10-16T13:41:16;26.20;37.50
61117;DHT22;47002;50.856;6.580;2022-10-16T13:43:44;26.00;37.90
61117;DHT22;47002;50.856;6.580;2022-10-16T13:46:13;25.50;37.60
61117;DHT22;47002;50.856;6.580;2022-10-16T13:48:39;24.80;39.30
61117;DHT22;47002;50.856;6.580;2022-10-16T13:51:10;24.40;40.70
61117;DHT22;47002;50.856;6.580;2022-10-16T13:53:36;23.90;42.00
61117;DHT22;47002;50.856;6.580;2022-10-16T13:56:04;23.60;42.60
61117;DHT22;47002;50.856;6.580;2022-10-16T13:58:31;23.40;43.80
61117;DHT22;47002;50.856;6.580;2022-10-16T14:00:59;23.20;44.30
61117;DHT22;47002;50.856;6.580;2022-10-16T14:03:26;23.00;45.60
61117;DHT22;47002;50.856;6.580;2022-10-16T14:05:54;22.80;46.40
61117;DHT22;47002;50.856;6.580;2022-10-16T14:08:20;22.40;46.20
61117;DHT22;47002;50.856;6.580;2022-10-16T14:10:48;22.10;47.00
61117;DHT22;47002;50.856;6.580;2022-10-16T14:13:17;21.80;47.60
61117;DHT22;47002;50.856;6.580;2022-10-16T14:15:47;21.50;47.50
61117;DHT22;47002;50.856;6.580;2022-10-16T14:18:18;21.10;48.20
61117;DHT22;47002;50.856;6.580;2022-10-16T14:20:44;20.80;49.60
61117;DHT22;47002;50.856;6.580;2022-10-16T14:23:20;20.60;50.00
61117;DHT22;47002;50.856;6.580;2022-10-16T14:25:46;20.50;50.60
61117;DHT22;47002;50.856;6.580;2022-10-16T14:28:16;20.30;51.50
61117;DHT22;47002;50.856;6.580;2022-10-16T14:30:52;20.20;51.90
61117;DHT22;47002;50.856;6.580;2022-10-16T14:33:22;20.10;52.90
61117;DHT22;47002;50.856;6.580;2022-10-16T14:36:00;20.00;54.20
61117;DHT22;47002;50.856;6.580;2022-10-16T14:38:26;20.00;54.60
61117;DHT22;47002;50.856;6.580;2022-10-16T14:40:52;20.00;54.90
61117;DHT22;47002;50.856;6.580;2022-10-16T14:43:20;20.10;54.60
61117;DHT22;47002;50.856;6.580;2022-10-16T14:45:51;20.10;54.40
61117;DHT22;47002;50.856;6.580;2022-10-16T14:48:18;20.10;54.60
61117;DHT22;47002;50.856;6.580;2022-10-16T14:50:44;20.10;55.20
61117;DHT22;47002;50.856;6.580;2022-10-16T14:53:11;20.10;54.70
61117;DHT22;47002;50.856;6.580;2022-10-16T14:55:37;20.10;56.10
61117;DHT22;47002;50.856;6.580;2022-10-16T14:58:03;20.10;56.70
61117;DHT22;47002;50.856;6.580;2022-10-16T15:00:28;20.00;56.60
61117;DHT22;47002;50.856;6.580;2022-10-16T15:02:55;20.00;57.00
61117;DHT22;47002;50.856;6.580;2022-10-16T15:05:23;19.90;57.10
61117;DHT22;47002;50.856;6.580;2022-10-16T15:07:49;19.60;58.00
61117;DHT22;47002;50.856;6.580;2022-10-16T15:10:16;19.30;59.80
61117;DHT22;47002;50.856;6.580;2022-10-16T15:12:43;19.10;60.90
61117;DHT22;47002;50.856;6.580;2022-10-16T15:15:31;18.90;62.70
61117;DHT22;47002;50.856;6.580;2022-10-16T15:17:59;18.70;64.10
61117;DHT22;47002;50.856;6.580;2022-10-16T15:20:25;18.50;65.30
61117;DHT22;47002;50.856;6.580;2022-10-16T15:22:51;18.30;66.10
61117;DHT22;47002;50.856;6.580;2022-10-16T15:25:29;18.20;66.70
61117;DHT22;47002;50.856;6.580;2022-10-16T15:27:55;18.10;67.20
61117;DHT22;47002;50.856;6.580;2022-10-16T15:30:21;18.00;67.70
61117;DHT22;47002;50.856;6.580;2022-10-16T15:32:46;18.00;68.20
61117;DHT22;47002;50.856;6.580;2022-10-16T15:35:13;18.00;68.90
61117;DHT22;47002;50.856;6.580;2022-10-16T15:37:39;17.90;69.30
61117;DHT22;47002;50.856;6.580;2022-10-16T15:40:06;17.90;69.20
61117;DHT22;47002;50.856;6.580;2022-10-16T15:42:31;17.90;69.40
61117;DHT22;47002;50.856;6.580;2022-10-16T15:44:57;17.90;69.70
61117;DHT22;47002;50.856;6.580;2022-10-16T15:47:23;17.90;69.70